sensor_id;sensor_type;location;lat;lon;timestamp;P1;durP1;ratioP1;P2;durP2;ratioP2
583;SDS011;27024;54.068;12.116;2024-03-22T00:00:55;24.80;;;10.60;;
583;SDS011;27024;54.068;12.116;2024-03-22T00:03:21;21.88;;;9.77;;
583;SDS011;27024;54.068;12.116;2024-03-22T00:05:47;25.50;;;11.05;;
583;SDS011;27024;54.068;12.116;2024-03-22T00:08:13;26.75;;;10.27;;
583;SDS011;27024;54.068;12.116;2024-03-22T00:10:39;20.75;;;10.05;;
583;SDS011;27024;54.068;12.116;2024-03-22T00:13:05;24.15;;;11.05;;
583;SDS011;27024;54.068;12.116;2024-03-22T00:15:31;25.20;;;10.82;;
583;SDS011;27024;54.068;12.116;2024-03-22T00:17:57;23.00;;;11.02;;
583;SDS011;27024;54.068;12.116;2024-03-22T00:20:23;25.10;;;10.98;;
583;SDS011;27024;54.068;12.116;2024-03-22T00:22:49;23.13;;;10.88;;
583;SDS011;27024;54.068;12.116;2024-03-22T00:25:15;23.65;;;11.10;;
583;SDS011;27024;54.068;12.116;2024-03-22T00:27:41;25.60;;;10.68;;
583;SDS011;27024;54.068;12.116;2024-03-22T00:30:07;26.23;;;11.45;;
583;SDS011;27024;54.068;12.116;2024-03-22T00:32:33;28.27;;;12.45;;
583;SDS011;27024;54.068;12.116;2024-03-22T00:34:59;27.85;;;11.27;;
583;SDS011;27024;54.068;12.116;2024-03-22T00:37:25;29.05;;;11.32;;
583;SDS011;27024;54.068;12.116;2024-03-22T00:39:51;29.92;;;11.93;;
583;SDS011;27024;54.068;12.116;2024-03-22T00:42:17;26.00;;;11.48;;
583;SDS011;27024;54.068;12.116;2024-03-22T00:44:43;26.15;;;11.23;;
583;SDS011;27024;54.068;12.116;2024-03-22T00:47:09;25.15;;;11.65;;
583;SDS011;27024;54.068;12.116;2024-03-22T00:49:35;26.63;;;10.88;;
583;SDS011;27024;54.068;12.116;2024-03-22T00:52:01;24.85;;;11.85;;
583;SDS011;27024;54.068;12.116;2024-03-22T00:54:27;32.25;;;12.18;;
583;SDS011;27024;54.068;12.116;2024-03-22T00:56:52;23.00;;;11.77;;
583;SDS011;27024;54.068;12.116;2024-03-22T00:59:18;31.38;;;11.32;;
583;SDS011;27024;54.068;12.116;2024-03-22T01:01:44;29.10;;;11.40;;
583;SDS011;27024;54.068;12.116;2024-03-22T01:04:10;28.33;;;11.75;;
583;SDS011;27024;54.068;12.116;2024-03-22T01:06:36;27.85;;;11.35;;
583;SDS011;27024;54.068;12.116;2024-03-22T01:09:02;24.40;;;11.52;;
583;SDS011;27024;54.068;12.116;2024-03-22T01:11:29;30.55;;;11.65;;
583;SDS011;27024;54.068;12.116;2024-03-22T01:13:55;27.25;;;11.23;;
583;SDS011;27024;54.068;12.116;2024-03-22T01:16:21;25.27;;;11.75;;
583;SDS011;27024;54.068;12.116;2024-03-22T01:18:47;24.08;;;11.35;;
583;SDS011;27024;54.068;12.116;2024-03-22T01:21:14;21.50;;;10.20;;
583;SDS011;27024;54.068;12.116;2024-03-22T01:23:40;27.75;;;11.43;;
583;SDS011;27024;54.068;12.116;2024-03-22T01:26:06;27.38;;;10.48;;
583;SDS011;27024;54.068;12.116;2024-03-22T01:28:32;24.27;;;11.30;;
583;SDS011;27024;54.068;12.116;2024-03-22T01:30:58;22.35;;;9.40;;
583;SDS011;27024;54.068;12.116;2024-03-22T01:33:24;23.90;;;10.32;;
583;SDS011;27024;54.068;12.116;2024-03-22T01:35:50;19.83;;;8.25;;
583;SDS011;27024;54.068;12.116;2024-03-22T01:38:16;26.42;;;10.23;;
583;SDS011;27024;54.068;12.116;2024-03-22T01:40:42;21.27;;;9.52;;
583;SDS011;27024;54.068;12.116;2024-03-22T01:43:08;23.02;;;10.10;;
583;SDS011;27024;54.068;12.116;2024-03-22T01:45:34;23.52;;;9.55;;
583;SDS011;27024;54.068;12.116;2024-03-22T01:48:00;26.75;;;10.85;;
583;SDS011;27024;54.068;12.116;2024-03-22T01:50:27;26.85;;;9.90;;
583;SDS011;27024;54.068;12.116;2024-03-22T01:52:53;26.60;;;9.70;;
583;SDS011;27024;54.068;12.116;2024-03-22T01:55:19;22.58;;;10.57;;
583;SDS011;27024;54.068;12.116;2024-03-22T01:57:45;26.20;;;10.50;;
583;SDS011;27024;54.068;12.116;2024-03-22T02:00:12;23.27;;;10.38;;
583;SDS011;27024;54.068;12.116;2024-03-22T02:02:38;24.92;;;11.25;;
583;SDS011;27024;54.068;12.116;2024-03-22T02:05:14;26.02;;;10.75;;
583;SDS011;27024;54.068;12.116;2024-03-22T02:07:42;28.45;;;11.18;;
583;SDS011;27024;54.068;12.116;2024-03-22T02:10:08;32.25;;;11.15;;
583;SDS011;27024;54.068;12.116;2024-03-22T02:12:37;23.92;;;10.15;;
583;SDS011;27024;54.068;12.116;2024-03-22T02:15:03;27.33;;;10.25;;
583;SDS011;27024;54.068;12.116;2024-03-22T02:17:29;23.40;;;10.25;;
583;SDS011;27024;54.068;12.116;2024-03-22T02:19:55;24.42;;;10.27;;
583;SDS011;27024;54.068;12.116;2024-03-22T02:22:21;24.45;;;10.25;;
583;SDS011;27024;54.068;12.116;2024-03-22T02:24:47;23.60;;;8.68;;
583;SDS011;27024;54.068;12.116;2024-03-22T02:27:13;21.15;;;9.05;;
583;SDS011;27024;54.068;12.116;2024-03-22T02:29:39;21.05;;;9.27;;
583;SDS011;27024;54.068;12.116;2024-03-22T02:32:05;24.73;;;9.07;;
583;SDS011;27024;54.068;12.116;2024-03-22T02:34:32;21.08;;;8.50;;
583;SDS011;27024;54.068;12.116;2024-03-22T02:36:58;18.35;;;8.63;;
583;SDS011;27024;54.068;12.116;2024-03-22T02:39:24;23.33;;;9.93;;
583;SDS011;27024;54.068;12.116;2024-03-22T02:41:51;21.45;;;9.13;;
583;SDS011;27024;54.068;12.116;2024-03-22T02:44:17;24.77;;;9.07;;
583;SDS011;27024;54.068;12.116;2024-03-22T02:46:43;23.65;;;9.77;;
583;SDS011;27024;54.068;12.116;2024-03-22T02:49:09;20.48;;;9.25;;
583;SDS011;27024;54.068;12.116;2024-03-22T02:51:35;24.98;;;10.27;;
583;SDS011;27024;54.068;12.116;2024-03-22T02:54:01;23.83;;;8.57;;
583;SDS011;27024;54.068;12.116;2024-03-22T02:56:33;22.88;;;8.65;;
583;SDS011;27024;54.068;12.116;2024-03-22T02:58:59;17.80;;;8.93;;
583;SDS011;27024;54.068;12.116;2024-03-22T03:01:25;23.42;;;8.85;;
583;SDS011;27024;54.068;12.116;2024-03-22T03:03:51;23.42;;;10.00;;
583;SDS011;27024;54.068;12.116;2024-03-22T03:06:17;24.30;;;9.35;;
583;SDS011;27024;54.068;12.116;2024-03-22T03:08:45;18.27;;;8.40;;
583;SDS011;27024;54.068;12.116;2024-03-22T03:11:11;18.55;;;9.20;;
583;SDS011;27024;54.068;12.116;2024-03-22T03:13:40;21.70;;;8.82;;
583;SDS011;27024;54.068;12.116;2024-03-22T03:16:06;19.63;;;9.05;;
583;SDS011;27024;54.068;12.116;2024-03-22T03:18:33;18.05;;;9.95;;
583;SDS011;27024;54.068;12.116;2024-03-22T03:20:59;18.65;;;9.20;;
583;SDS011;27024;54.068;12.116;2024-03-22T03:23:25;17.08;;;8.35;;
583;SDS011;27024;54.068;12.116;2024-03-22T03:25:52;14.95;;;6.40;;
583;SDS011;27024;54.068;12.116;2024-03-22T03:28:19;22.33;;;9.55;;
583;SDS011;27024;54.068;12.116;2024-03-22T03:30:45;23.95;;;9.82;;
583;SDS011;27024;54.068;12.116;2024-03-22T03:33:11;22.77;;;9.65;;
583;SDS011;27024;54.068;12.116;2024-03-22T03:35:37;21.17;;;9.60;;
583;SDS011;27024;54.068;12.116;2024-03-22T03:38:03;24.15;;;9.95;;
583;SDS011;27024;54.068;12.116;2024-03-22T03:40:29;22.05;;;9.75;;
583;SDS011;27024;54.068;12.116;2024-03-22T03:42:55;22.00;;;9.00;;
583;SDS011;27024;54.068;12.116;2024-03-22T03:45:21;14.18;;;7.35;;
583;SDS011;27024;54.068;12.116;2024-03-22T03:47:47;18.98;;;9.52;;
583;SDS011;27024;54.068;12.116;2024-03-22T03:50:13;19.83;;;8.57;;
583;SDS011;27024;54.068;12.116;2024-03-22T03:52:39;20.20;;;9.65;;
583;SDS011;27024;54.068;12.116;2024-03-22T03:55:05;24.80;;;9.85;;
583;SDS011;27024;54.068;12.116;2024-03-22T03:57:31;21.33;;;10.18;;
583;SDS011;27024;54.068;12.116;2024-03-22T03:59:56;22.40;;;9.77;;
583;SDS011;27024;54.068;12.116;2024-03-22T04:02:22;20.20;;;10.35;;
583;SDS011;27024;54.068;12.116;2024-03-22T04:04:51;16.13;;;7.10;;
583;SDS011;27024;54.068;12.116;2024-03-22T04:07:19;23.52;;;8.90;;
583;SDS011;27024;54.068;12.116;2024-03-22T04:09:46;20.63;;;9.25;;
583;SDS011;27024;54.068;12.116;2024-03-22T04:12:12;20.88;;;10.00;;
583;SDS011;27024;54.068;12.116;2024-03-22T04:14:39;20.38;;;10.40;;
583;SDS011;27024;54.068;12.116;2024-03-22T04:17:05;22.23;;;9.50;;
583;SDS011;27024;54.068;12.116;2024-03-22T04:19:30;21.92;;;10.27;;
583;SDS011;27024;54.068;12.116;2024-03-22T04:21:56;22.08;;;10.13;;
583;SDS011;27024;54.068;12.116;2024-03-22T04:24:22;22.67;;;9.90;;
583;SDS011;27024;54.068;12.116;2024-03-22T04:26:48;23.45;;;10.07;;
583;SDS011;27024;54.068;12.116;2024-03-22T04:29:14;21.85;;;9.68;;
583;SDS011;27024;54.068;12.116;2024-03-22T04:31:40;20.88;;;9.73;;
583;SDS011;27024;54.068;12.116;2024-03-22T04:34:06;21.92;;;9.70;;
583;SDS011;27024;54.068;12.116;2024-03-22T04:36:33;23.17;;;10.18;;
583;SDS011;27024;54.068;12.116;2024-03-22T04:38:59;21.17;;;9.45;;
583;SDS011;27024;54.068;12.116;2024-03-22T04:41:25;19.15;;;10.20;;
583;SDS011;27024;54.068;12.116;2024-03-22T04:43:51;23.85;;;10.70;;
583;SDS011;27024;54.068;12.116;2024-03-22T04:46:17;22.73;;;8.52;;
583;SDS011;27024;54.068;12.116;2024-03-22T04:48:43;28.38;;;10.73;;
583;SDS011;27024;54.068;12.116;2024-03-22T04:51:09;26.42;;;11.45;;
583;SDS011;27024;54.068;12.116;2024-03-22T04:53:35;21.52;;;8.55;;
583;SDS011;27024;54.068;12.116;2024-03-22T04:56:01;18.73;;;9.65;;
583;SDS011;27024;54.068;12.116;2024-03-22T04:58:28;22.45;;;10.07;;
583;SDS011;27024;54.068;12.116;2024-03-22T05:00:57;26.17;;;11.45;;
583;SDS011;27024;54.068;12.116;2024-03-22T05:03:23;27.45;;;11.50;;
583;SDS011;27024;54.068;12.116;2024-03-22T05:05:50;26.67;;;12.65;;
583;SDS011;27024;54.068;12.116;2024-03-22T05:08:16;19.92;;;10.82;;
583;SDS011;27024;54.068;12.116;2024-03-22T05:10:42;24.77;;;11.80;;
583;SDS011;27024;54.068;12.116;2024-03-22T05:13:08;23.98;;;11.85;;
583;SDS011;27024;54.068;12.116;2024-03-22T05:15:34;24.05;;;11.25;;
583;SDS011;27024;54.068;12.116;2024-03-22T05:18:01;27.75;;;12.07;;
583;SDS011;27024;54.068;12.116;2024-03-22T05:20:26;26.73;;;12.10;;
583;SDS011;27024;54.068;12.116;2024-03-22T05:22:52;19.80;;;8.88;;
583;SDS011;27024;54.068;12.116;2024-03-22T05:25:18;28.30;;;14.35;;
583;SDS011;27024;54.068;12.116;2024-03-22T05:27:45;28.25;;;12.98;;
583;SDS011;27024;54.068;12.116;2024-03-22T05:30:11;26.80;;;12.02;;
583;SDS011;27024;54.068;12.116;2024-03-22T05:32:39;31.08;;;13.60;;
583;SDS011;27024;54.068;12.116;2024-03-22T05:35:06;30.65;;;14.05;;
583;SDS011;27024;54.068;12.116;2024-03-22T05:37:33;30.08;;;12.57;;
583;SDS011;27024;54.068;12.116;2024-03-22T05:40:02;25.75;;;13.55;;
583;SDS011;27024;54.068;12.116;2024-03-22T05:42:30;30.23;;;14.55;;
583;SDS011;27024;54.068;12.116;2024-03-22T05:44:56;29.55;;;14.35;;
583;SDS011;27024;54.068;12.116;2024-03-22T05:47:22;30.33;;;13.30;;
583;SDS011;27024;54.068;12.116;2024-03-22T05:49:48;29.48;;;13.15;;
583;SDS011;27024;54.068;12.116;2024-03-22T05:52:14;29.75;;;14.13;;
583;SDS011;27024;54.068;12.116;2024-03-22T05:54:40;30.63;;;13.60;;
583;SDS011;27024;54.068;12.116;2024-03-22T05:57:07;31.17;;;11.73;;
583;SDS011;27024;54.068;12.116;2024-03-22T05:59:33;30.83;;;13.30;;
583;SDS011;27024;54.068;12.116;2024-03-22T06:01:59;30.35;;;13.85;;
583;SDS011;27024;54.068;12.116;2024-03-22T06:04:26;31.73;;;15.05;;
583;SDS011;27024;54.068;12.116;2024-03-22T06:06:52;28.08;;;13.30;;
583;SDS011;27024;54.068;12.116;2024-03-22T06:09:18;31.27;;;15.52;;
583;SDS011;27024;54.068;12.116;2024-03-22T06:12:00;32.33;;;13.13;;
583;SDS011;27024;54.068;12.116;2024-03-22T06:14:28;33.25;;;14.13;;
583;SDS011;27024;54.068;12.116;2024-03-22T06:16:54;29.20;;;12.77;;
583;SDS011;27024;54.068;12.116;2024-03-22T06:19:21;28.02;;;14.73;;
583;SDS011;27024;54.068;12.116;2024-03-22T06:21:47;31.25;;;15.13;;
583;SDS011;27024;54.068;12.116;2024-03-22T06:24:13;31.00;;;15.30;;
583;SDS011;27024;54.068;12.116;2024-03-22T06:26:39;28.70;;;14.00;;
583;SDS011;27024;54.068;12.116;2024-03-22T06:29:05;30.75;;;16.02;;
583;SDS011;27024;54.068;12.116;2024-03-22T06:31:31;33.80;;;16.15;;
583;SDS011;27024;54.068;12.116;2024-03-22T06:33:57;33.65;;;15.80;;
583;SDS011;27024;54.068;12.116;2024-03-22T06:36:28;30.95;;;14.77;;
583;SDS011;27024;54.068;12.116;2024-03-22T06:38:55;28.65;;;14.73;;
583;SDS011;27024;54.068;12.116;2024-03-22T06:41:22;34.90;;;16.63;;
583;SDS011;27024;54.068;12.116;2024-03-22T06:43:48;35.03;;;16.30;;
583;SDS011;27024;54.068;12.116;2024-03-22T06:46:13;33.08;;;15.27;;
583;SDS011;27024;54.068;12.116;2024-03-22T06:48:40;37.47;;;17.70;;
583;SDS011;27024;54.068;12.116;2024-03-22T06:51:05;32.90;;;16.27;;
583;SDS011;27024;54.068;12.116;2024-03-22T06:53:32;37.25;;;17.17;;
583;SDS011;27024;54.068;12.116;2024-03-22T06:55:58;35.20;;;16.58;;
583;SDS011;27024;54.068;12.116;2024-03-22T06:58:23;37.30;;;16.92;;
583;SDS011;27024;54.068;12.116;2024-03-22T07:00:50;37.65;;;16.98;;
583;SDS011;27024;54.068;12.116;2024-03-22T07:03:16;35.20;;;16.45;;
583;SDS011;27024;54.068;12.116;2024-03-22T07:05:43;41.15;;;18.80;;
583;SDS011;27024;54.068;12.116;2024-03-22T07:08:09;35.03;;;16.98;;
583;SDS011;27024;54.068;12.116;2024-03-22T07:10:38;35.78;;;16.73;;
583;SDS011;27024;54.068;12.116;2024-03-22T07:13:05;36.35;;;18.02;;
583;SDS011;27024;54.068;12.116;2024-03-22T07:15:31;37.42;;;17.33;;
583;SDS011;27024;54.068;12.116;2024-03-22T07:17:58;37.10;;;17.10;;
583;SDS011;27024;54.068;12.116;2024-03-22T07:20:25;36.15;;;17.10;;
583;SDS011;27024;54.068;12.116;2024-03-22T07:22:51;35.78;;;16.70;;
583;SDS011;27024;54.068;12.116;2024-03-22T07:25:17;36.10;;;16.67;;
583;SDS011;27024;54.068;12.116;2024-03-22T07:27:43;35.65;;;16.75;;
583;SDS011;27024;54.068;12.116;2024-03-22T07:30:09;38.08;;;17.65;;
583;SDS011;27024;54.068;12.116;2024-03-22T07:32:36;36.88;;;18.27;;
583;SDS011;27024;54.068;12.116;2024-03-22T07:35:03;37.15;;;17.95;;
583;SDS011;27024;54.068;12.116;2024-03-22T07:37:29;41.95;;;19.55;;
583;SDS011;27024;54.068;12.116;2024-03-22T07:39:55;35.00;;;17.35;;
583;SDS011;27024;54.068;12.116;2024-03-22T07:42:21;39.03;;;18.08;;
583;SDS011;27024;54.068;12.116;2024-03-22T07:44:47;41.08;;;19.08;;
583;SDS011;27024;54.068;12.116;2024-03-22T07:47:13;38.22;;;18.40;;
583;SDS011;27024;54.068;12.116;2024-03-22T07:49:39;36.70;;;17.90;;
583;SDS011;27024;54.068;12.116;2024-03-22T07:52:05;39.17;;;18.02;;
583;SDS011;27024;54.068;12.116;2024-03-22T07:54:31;39.33;;;18.58;;
583;SDS011;27024;54.068;12.116;2024-03-22T07:56:57;41.90;;;19.13;;
583;SDS011;27024;54.068;12.116;2024-03-22T07:59:23;38.50;;;17.45;;
583;SDS011;27024;54.068;12.116;2024-03-22T08:01:49;41.78;;;20.95;;
583;SDS011;27024;54.068;12.116;2024-03-22T08:04:15;42.20;;;21.52;;
583;SDS011;27024;54.068;12.116;2024-03-22T08:06:41;31.60;;;15.35;;
583;SDS011;27024;54.068;12.116;2024-03-22T08:09:08;38.47;;;19.52;;
583;SDS011;27024;54.068;12.116;2024-03-22T08:11:34;36.35;;;18.42;;
583;SDS011;27024;54.068;12.116;2024-03-22T08:14:01;39.63;;;19.90;;
583;SDS011;27024;54.068;12.116;2024-03-22T08:16:29;45.33;;;20.42;;
583;SDS011;27024;54.068;12.116;2024-03-22T08:18:56;39.85;;;20.10;;
583;SDS011;27024;54.068;12.116;2024-03-22T08:21:22;44.80;;;20.88;;
583;SDS011;27024;54.068;12.116;2024-03-22T08:23:49;43.50;;;20.58;;
583;SDS011;27024;54.068;12.116;2024-03-22T08:26:16;42.85;;;21.33;;
583;SDS011;27024;54.068;12.116;2024-03-22T08:28:42;33.33;;;15.82;;
583;SDS011;27024;54.068;12.116;2024-03-22T08:31:08;41.47;;;19.15;;
583;SDS011;27024;54.068;12.116;2024-03-22T08:33:34;43.90;;;21.20;;
583;SDS011;27024;54.068;12.116;2024-03-22T08:36:00;34.72;;;16.55;;
583;SDS011;27024;54.068;12.116;2024-03-22T08:38:26;43.92;;;21.40;;
583;SDS011;27024;54.068;12.116;2024-03-22T08:40:52;43.97;;;21.88;;
583;SDS011;27024;54.068;12.116;2024-03-22T08:43:18;44.85;;;21.58;;
583;SDS011;27024;54.068;12.116;2024-03-22T08:45:46;43.97;;;21.75;;
583;SDS011;27024;54.068;12.116;2024-03-22T08:48:12;46.58;;;21.92;;
583;SDS011;27024;54.068;12.116;2024-03-22T08:50:38;45.55;;;23.05;;
583;SDS011;27024;54.068;12.116;2024-03-22T08:53:04;46.03;;;22.00;;
583;SDS011;27024;54.068;12.116;2024-03-22T08:55:31;47.30;;;22.90;;
583;SDS011;27024;54.068;12.116;2024-03-22T08:57:57;47.60;;;22.60;;
583;SDS011;27024;54.068;12.116;2024-03-22T09:00:23;47.40;;;22.40;;
583;SDS011;27024;54.068;12.116;2024-03-22T09:02:49;51.22;;;24.25;;
583;SDS011;27024;54.068;12.116;2024-03-22T09:05:14;46.65;;;22.58;;
583;SDS011;27024;54.068;12.116;2024-03-22T09:07:41;51.25;;;24.00;;
583;SDS011;27024;54.068;12.116;2024-03-22T09:10:07;50.55;;;23.45;;
583;SDS011;27024;54.068;12.116;2024-03-22T09:12:34;50.30;;;23.80;;
583;SDS011;27024;54.068;12.116;2024-03-22T09:15:00;46.83;;;22.90;;
583;SDS011;27024;54.068;12.116;2024-03-22T09:17:27;49.70;;;23.77;;
583;SDS011;27024;54.068;12.116;2024-03-22T09:19:53;51.10;;;24.15;;
583;SDS011;27024;54.068;12.116;2024-03-22T09:22:19;51.53;;;24.35;;
583;SDS011;27024;54.068;12.116;2024-03-22T09:24:45;51.05;;;24.60;;
583;SDS011;27024;54.068;12.116;2024-03-22T09:27:11;48.22;;;24.58;;
583;SDS011;27024;54.068;12.116;2024-03-22T09:29:37;49.85;;;21.27;;
583;SDS011;27024;54.068;12.116;2024-03-22T09:32:04;46.20;;;22.58;;
583;SDS011;27024;54.068;12.116;2024-03-22T09:34:30;48.90;;;24.88;;
583;SDS011;27024;54.068;12.116;2024-03-22T09:36:56;50.58;;;24.27;;
583;SDS011;27024;54.068;12.116;2024-03-22T09:39:23;50.63;;;23.58;;
583;SDS011;27024;54.068;12.116;2024-03-22T09:41:50;45.00;;;20.08;;
583;SDS011;27024;54.068;12.116;2024-03-22T09:44:20;50.47;;;24.52;;
583;SDS011;27024;54.068;12.116;2024-03-22T09:46:47;51.33;;;24.88;;
583;SDS011;27024;54.068;12.116;2024-03-22T09:49:16;51.42;;;23.95;;
583;SDS011;27024;54.068;12.116;2024-03-22T09:51:43;49.22;;;24.60;;
583;SDS011;27024;54.068;12.116;2024-03-22T09:54:10;49.53;;;23.88;;
583;SDS011;27024;54.068;12.116;2024-03-22T09:56:38;49.75;;;24.50;;
583;SDS011;27024;54.068;12.116;2024-03-22T09:59:05;48.08;;;23.63;;
583;SDS011;27024;54.068;12.116;2024-03-22T10:01:33;52.53;;;23.55;;
583;SDS011;27024;54.068;12.116;2024-03-22T10:04:00;49.90;;;23.80;;
583;SDS011;27024;54.068;12.116;2024-03-22T10:06:26;51.45;;;25.80;;
583;SDS011;27024;54.068;12.116;2024-03-22T10:08:52;52.08;;;24.90;;
583;SDS011;27024;54.068;12.116;2024-03-22T10:11:18;48.83;;;23.02;;
583;SDS011;27024;54.068;12.116;2024-03-22T10:13:44;50.75;;;24.02;;
583;SDS011;27024;54.068;12.116;2024-03-22T10:16:10;54.05;;;25.67;;
583;SDS011;27024;54.068;12.116;2024-03-22T10:18:36;52.08;;;26.00;;
583;SDS011;27024;54.068;12.116;2024-03-22T10:21:03;56.80;;;25.52;;
583;SDS011;27024;54.068;12.116;2024-03-22T10:23:30;51.90;;;24.50;;
583;SDS011;27024;54.068;12.116;2024-03-22T10:25:57;43.30;;;19.92;;
583;SDS011;27024;54.068;12.116;2024-03-22T10:28:27;50.50;;;24.08;;
583;SDS011;27024;54.068;12.116;2024-03-22T10:30:53;49.40;;;24.55;;
583;SDS011;27024;54.068;12.116;2024-03-22T10:33:20;55.53;;;25.02;;
583;SDS011;27024;54.068;12.116;2024-03-22T10:35:52;47.05;;;23.50;;
583;SDS011;27024;54.068;12.116;2024-03-22T10:38:22;51.55;;;24.35;;
583;SDS011;27024;54.068;12.116;2024-03-22T10:40:48;46.28;;;22.13;;
583;SDS011;27024;54.068;12.116;2024-03-22T10:43:15;53.47;;;25.83;;
583;SDS011;27024;54.068;12.116;2024-03-22T10:45:42;51.85;;;25.17;;
583;SDS011;27024;54.068;12.116;2024-03-22T10:48:09;53.00;;;24.30;;
583;SDS011;27024;54.068;12.116;2024-03-22T10:50:39;50.03;;;24.30;;
583;SDS011;27024;54.068;12.116;2024-03-22T10:55:37;47.10;;;22.25;;
583;SDS011;27024;54.068;12.116;2024-03-22T10:58:05;51.47;;;24.45;;
583;SDS011;27024;54.068;12.116;2024-03-22T11:00:32;50.70;;;23.00;;
583;SDS011;27024;54.068;12.116;2024-03-22T11:03:03;52.00;;;24.67;;
583;SDS011;27024;54.068;12.116;2024-03-22T11:05:30;52.53;;;24.27;;
583;SDS011;27024;54.068;12.116;2024-03-22T11:08:03;53.83;;;24.85;;
583;SDS011;27024;54.068;12.116;2024-03-22T11:10:33;52.05;;;25.20;;
583;SDS011;27024;54.068;12.116;2024-03-22T11:13:04;49.95;;;22.55;;
583;SDS011;27024;54.068;12.116;2024-03-22T11:15:30;47.80;;;24.08;;
583;SDS011;27024;54.068;12.116;2024-03-22T11:17:57;47.30;;;22.73;;
583;SDS011;27024;54.068;12.116;2024-03-22T11:20:25;49.33;;;23.95;;
583;SDS011;27024;54.068;12.116;2024-03-22T11:22:51;48.15;;;23.02;;
583;SDS011;27024;54.068;12.116;2024-03-22T11:25:18;44.33;;;21.13;;
583;SDS011;27024;54.068;12.116;2024-03-22T11:27:45;48.97;;;23.13;;
583;SDS011;27024;54.068;12.116;2024-03-22T11:30:11;48.58;;;23.00;;
583;SDS011;27024;54.068;12.116;2024-03-22T11:32:38;50.03;;;22.83;;
583;SDS011;27024;54.068;12.116;2024-03-22T11:35:10;51.42;;;23.17;;
583;SDS011;27024;54.068;12.116;2024-03-22T11:37:41;47.45;;;22.42;;
583;SDS011;27024;54.068;12.116;2024-03-22T11:40:11;48.00;;;22.85;;
583;SDS011;27024;54.068;12.116;2024-03-22T11:42:38;46.70;;;23.05;;
583;SDS011;27024;54.068;12.116;2024-03-22T11:45:05;47.25;;;22.17;;
583;SDS011;27024;54.068;12.116;2024-03-22T11:47:34;47.40;;;23.08;;
583;SDS011;27024;54.068;12.116;2024-03-22T11:50:01;49.47;;;23.65;;
583;SDS011;27024;54.068;12.116;2024-03-22T11:52:28;48.42;;;23.05;;
583;SDS011;27024;54.068;12.116;2024-03-22T11:54:54;47.92;;;23.20;;
583;SDS011;27024;54.068;12.116;2024-03-22T11:57:21;45.05;;;21.73;;
583;SDS011;27024;54.068;12.116;2024-03-22T11:59:48;44.25;;;22.02;;
583;SDS011;27024;54.068;12.116;2024-03-22T12:02:14;44.75;;;21.27;;
583;SDS011;27024;54.068;12.116;2024-03-22T12:04:41;86.78;;;31.17;;
583;SDS011;27024;54.068;12.116;2024-03-22T12:07:16;83.82;;;32.40;;
583;SDS011;27024;54.068;12.116;2024-03-22T12:09:43;58.47;;;22.48;;
583;SDS011;27024;54.068;12.116;2024-03-22T12:12:10;40.50;;;18.75;;
583;SDS011;27024;54.068;12.116;2024-03-22T12:14:37;63.88;;;24.63;;
583;SDS011;27024;54.068;12.116;2024-03-22T12:17:04;56.08;;;24.23;;
583;SDS011;27024;54.068;12.116;2024-03-22T12:19:31;46.05;;;20.85;;
583;SDS011;27024;54.068;12.116;2024-03-22T12:21:58;39.85;;;19.48;;
583;SDS011;27024;54.068;12.116;2024-03-22T12:24:24;40.60;;;19.08;;
583;SDS011;27024;54.068;12.116;2024-03-22T12:26:50;35.28;;;18.90;;
583;SDS011;27024;54.068;12.116;2024-03-22T12:29:16;36.90;;;17.55;;
583;SDS011;27024;54.068;12.116;2024-03-22T12:31:43;32.15;;;16.17;;
583;SDS011;27024;54.068;12.116;2024-03-22T12:34:09;31.50;;;16.50;;
583;SDS011;27024;54.068;12.116;2024-03-22T12:36:35;31.95;;;17.38;;
583;SDS011;27024;54.068;12.116;2024-03-22T12:39:02;28.05;;;14.68;;
583;SDS011;27024;54.068;12.116;2024-03-22T12:41:29;30.58;;;14.73;;
583;SDS011;27024;54.068;12.116;2024-03-22T12:43:56;24.55;;;11.32;;
583;SDS011;27024;54.068;12.116;2024-03-22T12:46:22;24.02;;;12.25;;
583;SDS011;27024;54.068;12.116;2024-03-22T12:48:48;21.38;;;9.85;;
583;SDS011;27024;54.068;12.116;2024-03-22T12:51:14;20.83;;;10.98;;
583;SDS011;27024;54.068;12.116;2024-03-22T12:53:40;18.63;;;9.85;;
583;SDS011;27024;54.068;12.116;2024-03-22T12:56:06;18.92;;;10.00;;
583;SDS011;27024;54.068;12.116;2024-03-22T12:58:32;16.65;;;8.60;;
583;SDS011;27024;54.068;12.116;2024-03-22T13:00:58;21.08;;;10.77;;
583;SDS011;27024;54.068;12.116;2024-03-22T13:03:26;18.83;;;9.50;;
583;SDS011;27024;54.068;12.116;2024-03-22T13:05:53;19.70;;;10.13;;
583;SDS011;27024;54.068;12.116;2024-03-22T13:08:19;20.30;;;9.73;;
583;SDS011;27024;54.068;12.116;2024-03-22T13:10:46;18.58;;;9.77;;
583;SDS011;27024;54.068;12.116;2024-03-22T13:13:13;18.02;;;8.98;;
583;SDS011;27024;54.068;12.116;2024-03-22T13:15:42;16.58;;;8.68;;
583;SDS011;27024;54.068;12.116;2024-03-22T13:18:08;18.90;;;9.88;;
583;SDS011;27024;54.068;12.116;2024-03-22T13:20:35;21.00;;;10.82;;
583;SDS011;27024;54.068;12.116;2024-03-22T13:23:02;18.02;;;10.02;;
583;SDS011;27024;54.068;12.116;2024-03-22T13:25:28;20.52;;;10.73;;
583;SDS011;27024;54.068;12.116;2024-03-22T13:27:54;18.77;;;10.27;;
583;SDS011;27024;54.068;12.116;2024-03-22T13:30:20;19.85;;;9.93;;
583;SDS011;27024;54.068;12.116;2024-03-22T13:32:47;17.80;;;9.00;;
583;SDS011;27024;54.068;12.116;2024-03-22T13:35:13;18.02;;;9.55;;
583;SDS011;27024;54.068;12.116;2024-03-22T13:37:43;19.25;;;9.93;;
583;SDS011;27024;54.068;12.116;2024-03-22T13:40:09;20.13;;;9.40;;
583;SDS011;27024;54.068;12.116;2024-03-22T13:42:36;16.52;;;8.57;;
583;SDS011;27024;54.068;12.116;2024-03-22T13:45:02;15.10;;;7.95;;
583;SDS011;27024;54.068;12.116;2024-03-22T13:47:28;15.82;;;7.45;;
583;SDS011;27024;54.068;12.116;2024-03-22T13:49:54;15.18;;;7.82;;
583;SDS011;27024;54.068;12.116;2024-03-22T13:52:20;12.90;;;6.88;;
583;SDS011;27024;54.068;12.116;2024-03-22T13:54:47;14.57;;;7.63;;
583;SDS011;27024;54.068;12.116;2024-03-22T13:57:13;14.32;;;8.00;;
583;SDS011;27024;54.068;12.116;2024-03-22T13:59:39;12.90;;;7.53;;
583;SDS011;27024;54.068;12.116;2024-03-22T14:02:05;12.07;;;5.78;;
583;SDS011;27024;54.068;12.116;2024-03-22T14:04:34;9.63;;;5.45;;
583;SDS011;27024;54.068;12.116;2024-03-22T14:07:00;11.48;;;5.40;;
583;SDS011;27024;54.068;12.116;2024-03-22T14:09:39;6.20;;;3.78;;
583;SDS011;27024;54.068;12.116;2024-03-22T14:12:06;6.82;;;3.70;;
583;SDS011;27024;54.068;12.116;2024-03-22T14:14:32;5.72;;;3.22;;
583;SDS011;27024;54.068;12.116;2024-03-22T14:16:58;6.78;;;3.28;;
583;SDS011;27024;54.068;12.116;2024-03-22T14:19:24;6.03;;;3.28;;
583;SDS011;27024;54.068;12.116;2024-03-22T14:21:51;4.60;;;2.70;;
583;SDS011;27024;54.068;12.116;2024-03-22T14:24:17;4.85;;;2.67;;
583;SDS011;27024;54.068;12.116;2024-03-22T14:26:42;4.95;;;2.50;;
583;SDS011;27024;54.068;12.116;2024-03-22T14:29:09;4.82;;;2.10;;
583;SDS011;27024;54.068;12.116;2024-03-22T14:31:36;3.05;;;1.50;;
583;SDS011;27024;54.068;12.116;2024-03-22T14:34:02;4.65;;;1.63;;
583;SDS011;27024;54.068;12.116;2024-03-22T14:36:28;4.38;;;1.42;;